Peaksville, Missouri
Current Conditions -  °F | °C
As of 12:15 PM on Monday 24 Nov 2014 (Local Time) from KEOK Reporting Station
Overcast Overcast  
Wind Chill: 17°   Ceiling: 2200
Heat Index: 30°   Visibility: 10mi
Dew Point: 25°   Wind: 23mph
Humidity: 80%   Direction: 270°W
Pressure: 29.61"   Gusts: 32mph
Location:  40.4976°N, 91.6726°W
Report Text: KEOK 241815Z AUTO 27020G28KT 10SM OVC022 M01/M04 A2961 RMK AO2
Loading
Personal Weather Stations






























Interactive Weather Map New forecast layout! Learn more

10-Day Weather Forecast

Advertisements
Track Severe Weather on mobile